Time;durP1;ratioP1;P1;durP2;ratioP2;P2;SDS_P1;SDS_P2;PMS_P1;PMS_P2;Temp;Humidity;BMP_temperature;BMP_pressure;BME280_temperature;BME280_humidity;BME280_pressure;Samples;Min_cycle;Max_cycle;Signal;HPM_P1;HPM_P2
2023/06/18 00:01:12;;;;;;;;;;;;;;;18.81;89.68;100624.52;107420;1254;99275;-68
2023/06/18 00:03:56;;;;;;;;;;;;;;;18.80;89.64;100626.99;107430;1256;99178;-66
2023/06/18 00:06:27;;;;;;;;;;;;;;;18.80;89.64;100620.80;107415;1257;113820;-67
2023/06/18 00:08:55;;;;;;;;;;;;;;;18.80;89.66;100624.09;107401;1254;109522;-65
2023/06/18 00:11:23;;;;;;;;;;;;;;;18.78;90.11;100627.36;107250;1257;108226;-67
2023/06/18 00:13:51;;;;;;;;;;;;;;;18.78;90.01;100621.62;107393;1254;99202;-68
2023/06/18 00:16:20;;;;;;;;;;;;;;;18.78;90.21;100623.41;107438;1254;99198;-66
2023/06/18 00:18:48;;;;;;;;;;;;;;;18.76;90.36;100620.75;107424;1254;113259;-65
2023/06/18 00:21:16;;;;;;;;;;;;;;;18.75;90.12;100619.87;107464;1254;110226;-66
2023/06/18 00:23:44;;;;;;;;;;;;;;;18.75;90.11;100617.55;107302;1254;107581;-67
2023/06/18 00:26:12;;;;;;;;;;;;;;;18.75;90.46;100617.60;107397;1253;99876;-66
2023/06/18 00:28:42;;;;;;;;;;;;;;;18.75;90.02;100621.54;107440;1254;99201;-66
2023/06/18 00:31:11;;;;;;;;;;;;;;;18.77;90.55;100626.25;107464;1258;113259;-69
2023/06/18 00:33:39;;;;;;;;;;;;;;;18.78;90.13;100626.52;107178;1254;109337;-65
2023/06/18 00:36:08;;;;;;;;;;;;;;;18.77;90.34;100619.30;107156;1260;107159;-67
2023/06/18 00:38:37;;;;;;;;;;;;;;;18.76;90.39;100623.60;107330;1255;99183;-65
2023/06/18 00:41:05;;;;;;;;;;;;;;;18.77;90.41;100622.23;107446;1254;99054;-65
2023/06/18 00:43:33;;;;;;;;;;;;;;;18.76;90.86;100620.00;107327;1254;113231;-65
2023/06/18 00:46:04;;;;;;;;;;;;;;;18.74;90.55;100624.39;107413;1254;109406;-65
2023/06/18 00:48:35;;;;;;;;;;;;;;;18.72;91.19;100621.56;107338;1254;108659;-66
2023/06/18 00:51:04;;;;;;;;;;;;;;;18.71;90.87;100622.05;107386;1254;99147;-66
2023/06/18 00:53:32;;;;;;;;;;;;;;;18.73;90.91;100621.27;107399;1254;99184;-67
2023/06/18 00:56:01;;;;;;;;;;;;;;;18.73;91.00;100621.69;107430;1254;112695;-65
2023/06/18 00:58:31;;;;;;;;;;;;;;;18.74;90.64;100621.36;107386;1253;109395;-65
2023/06/18 01:00:59;;;;;;;;;;;;;;;18.76;90.77;100623.64;107439;1254;108200;-71
2023/06/18 01:03:28;;;;;;;;;;;;;;;18.75;90.51;100623.14;107465;1254;99243;-68
2023/06/18 01:05:58;;;;;;;;;;;;;;;18.75;90.71;100619.56;107281;1254;99192;-65
2023/06/18 01:08:28;;;;;;;;;;;;;;;18.73;91.02;100626.17;107437;1254;113790;-66
2023/06/18 01:11:01;;;;;;;;;;;;;;;18.70;90.89;100625.00;107289;1254;109747;-66
2023/06/18 01:13:31;;;;;;;;;;;;;;;18.65;90.97;100621.36;107427;1254;108216;-66
2023/06/18 01:16:03;;;;;;;;;;;;;;;18.65;90.75;100620.27;107312;1254;99168;-67
2023/06/18 01:18:35;;;;;;;;;;;;;;;18.64;90.94;100624.23;107458;1254;99045;-66
2023/06/18 01:21:09;;;;;;;;;;;;;;;18.65;90.62;100626.72;107482;1254;112772;-66
2023/06/18 01:24:02;;;;;;;;;;;;;;;18.65;90.88;100629.27;107489;1257;109085;-66
2023/06/18 01:26:32;;;;;;;;;;;;;;;18.63;90.54;100626.94;107303;1254;107691;-67
2023/06/18 01:29:00;;;;;;;;;;;;;;;18.61;90.87;100626.80;107395;1257;99253;-66
2023/06/18 01:31:34;;;;;;;;;;;;;;;18.58;91.11;100628.91;107402;1254;99068;-66
2023/06/18 01:34:04;;;;;;;;;;;;;;;18.55;91.86;100628.80;107486;1254;112599;-66
2023/06/18 01:36:34;;;;;;;;;;;;;;;18.57;90.96;100627.13;107303;1253;107491;-67
2023/06/18 01:39:13;;;;;;;;;;;;;;;18.60;90.98;100632.75;107467;1254;108068;-66
2023/06/18 01:41:42;;;;;;;;;;;;;;;18.59;90.97;100631.60;107410;1254;99252;-65
2023/06/18 01:44:13;;;;;;;;;;;;;;;18.57;90.61;100634.17;107433;1254;99163;-66
2023/06/18 01:46:41;;;;;;;;;;;;;;;18.55;90.72;100640.02;107496;1254;113045;-66
2023/06/18 01:49:11;;;;;;;;;;;;;;;18.55;90.66;100642.04;107402;1257;108738;-66
2023/06/18 01:51:40;;;;;;;;;;;;;;;18.54;90.86;100646.41;107450;1253;108040;-67
2023/06/18 01:54:09;;;;;;;;;;;;;;;18.49;91.28;100648.58;107327;1254;99153;-66
2023/06/18 01:56:38;;;;;;;;;;;;;;;18.45;91.11;100652.02;107512;1254;99170;-65
2023/06/18 01:59:25;;;;;;;;;;;;;;;18.45;90.78;100654.16;107475;1254;111311;-67
2023/06/18 02:02:12;;;;;;;;;;;;;;;18.47;90.68;100655.73;107292;1257;110329;-66
2023/06/18 02:04:59;;;;;;;;;;;;;;;18.49;90.72;100652.34;107460;1254;106209;-67
2023/06/18 02:07:45;;;;;;;;;;;;;;;18.46;90.88;100654.41;107437;1254;99198;-66
2023/06/18 02:10:30;;;;;;;;;;;;;;;18.45;90.86;100653.95;107221;1254;99176;-65
2023/06/18 02:13:18;;;;;;;;;;;;;;;18.42;91.01;100656.51;107465;1254;111204;-65
2023/06/18 02:16:04;;;;;;;;;;;;;;;18.44;90.46;100662.10;107290;1255;109701;-66
2023/06/18 02:18:49;;;;;;;;;;;;;;;18.51;90.48;100662.60;107394;1258;107925;-67
2023/06/18 02:21:35;;;;;;;;;;;;;;;18.55;90.04;100662.81;107475;1259;99336;-67
2023/06/18 02:24:21;;;;;;;;;;;;;;;18.57;89.86;100667.75;107491;1254;99048;-66
2023/06/18 02:27:07;;;;;;;;;;;;;;;18.53;89.89;100671.33;107305;1254;111307;-67
2023/06/18 02:29:52;;;;;;;;;;;;;;;18.53;89.90;100669.40;107443;1256;107554;-66
2023/06/18 02:32:39;;;;;;;;;;;;;;;18.56;89.57;100669.78;107304;1254;106274;-65
2023/06/18 02:35:26;;;;;;;;;;;;;;;18.56;89.64;100674.11;107451;1254;99238;-68
2023/06/18 02:38:12;;;;;;;;;;;;;;;18.52;89.52;100675.44;107357;1257;99166;-66
2023/06/18 02:40:58;;;;;;;;;;;;;;;18.48;89.92;100677.48;107426;1254;111274;-66
2023/06/18 02:43:28;;;;;;;;;;;;;;;18.41;90.08;100679.58;107290;1254;109383;-68
2023/06/18 02:45:57;;;;;;;;;;;;;;;18.38;90.32;100686.65;107406;1254;108111;-65
2023/06/18 02:48:25;;;;;;;;;;;;;;;18.36;90.19;100686.92;107230;1259;99095;-66
2023/06/18 02:50:53;;;;;;;;;;;;;;;18.38;90.04;100685.16;107413;1254;99204;-67
2023/06/18 02:53:21;;;;;;;;;;;;;;;18.41;89.87;100688.04;107404;1254;112836;-66
2023/06/18 02:55:50;;;;;;;;;;;;;;;18.43;90.03;100692.38;107435;1255;110345;-66
2023/06/18 02:58:30;;;;;;;;;;;;;;;18.40;89.72;100691.80;107456;1254;108102;-66
2023/06/18 03:01:02;;;;;;;;;;;;;;;18.41;89.92;100693.13;107275;1259;99292;-65
2023/06/18 03:03:37;;;;;;;;;;;;;;;18.41;89.93;100697.92;107297;1254;99171;-66
2023/06/18 03:06:05;;;;;;;;;;;;;;;18.40;89.89;100698.18;107413;1254;113003;-66
2023/06/18 03:08:34;;;;;;;;;;;;;;;18.41;89.85;100704.47;107472;1254;108321;-66
2023/06/18 03:11:02;;;;;;;;;;;;;;;18.41;89.89;100706.81;107315;1254;107774;-67
2023/06/18 03:13:30;;;;;;;;;;;;;;;18.39;89.81;100715.51;107400;1254;99246;-65
2023/06/18 03:15:59;;;;;;;;;;;;;;;18.38;89.83;100716.61;107390;1254;99025;-67
2023/06/18 03:18:30;;;;;;;;;;;;;;;18.41;89.66;100714.42;107414;1253;112091;-67
2023/06/18 03:20:58;;;;;;;;;;;;;;;18.45;89.47;100718.56;107297;1254;109273;-66
2023/06/18 03:23:27;;;;;;;;;;;;;;;18.46;89.13;100722.16;107434;1254;108156;-67
2023/06/18 03:25:55;;;;;;;;;;;;;;;18.44;89.27;100717.70;107458;1254;99271;-68
2023/06/18 03:28:29;;;;;;;;;;;;;;;18.42;89.31;100720.94;107378;1254;99166;-67
2023/06/18 03:30:57;;;;;;;;;;;;;;;18.41;89.19;100716.91;107291;1254;113754;-65
2023/06/18 03:33:29;;;;;;;;;;;;;;;18.42;89.20;100719.73;107452;1257;109874;-67
2023/06/18 03:36:01;;;;;;;;;;;;;;;18.44;89.25;100722.77;107375;1254;108194;-66
2023/06/18 03:38:32;;;;;;;;;;;;;;;18.46;89.11;100724.85;107430;1254;99156;-65
2023/06/18 03:41:02;;;;;;;;;;;;;;;18.43;89.09;100719.82;107419;1254;99158;-65
2023/06/18 03:43:30;;;;;;;;;;;;;;;18.45;88.77;100722.96;107359;1254;113439;-65
2023/06/18 03:46:00;;;;;;;;;;;;;;;18.52;88.82;100719.23;107490;1258;109461;-66
2023/06/18 03:48:30;;;;;;;;;;;;;;;18.56;88.48;100723.42;107399;1254;107867;-67
2023/06/18 03:50:58;;;;;;;;;;;;;;;18.60;88.20;100726.25;107272;1254;99458;-65
2023/06/18 03:53:27;;;;;;;;;;;;;;;18.67;88.08;100729.39;107312;1254;99170;-66
2023/06/18 03:55:56;;;;;;;;;;;;;;;18.67;87.61;100731.81;107449;1255;113424;-67
2023/06/18 03:58:24;;;;;;;;;;;;;;;18.65;87.85;100731.88;107306;1257;109694;-66
2023/06/18 04:00:53;;;;;;;;;;;;;;;18.64;87.53;100731.58;107329;1255;107132;-67
2023/06/18 04:03:22;;;;;;;;;;;;;;;18.68;87.56;100732.88;107354;1258;99181;-66
2023/06/18 04:05:51;;;;;;;;;;;;;;;18.70;87.46;100736.81;107295;1257;99296;-67
2023/06/18 04:08:19;;;;;;;;;;;;;;;18.70;87.38;100735.71;107205;1257;113456;-66
2023/06/18 04:10:48;;;;;;;;;;;;;;;18.75;87.27;100730.92;107368;1257;109115;-66
2023/06/18 04:13:19;;;;;;;;;;;;;;;18.86;87.37;100734.99;107229;1257;107865;-66
2023/06/18 04:15:48;;;;;;;;;;;;;;;18.95;86.68;100738.55;107338;1259;99176;-66
2023/06/18 04:18:17;;;;;;;;;;;;;;;18.93;86.33;100740.54;107371;1255;99365;-70
2023/06/18 04:20:47;;;;;;;;;;;;;;;18.92;86.10;100740.28;107358;1257;112351;-69
2023/06/18 04:23:16;;;;;;;;;;;;;;;18.98;86.22;100740.02;107274;1257;109089;-67
2023/06/18 04:26:02;;;;;;;;;;;;;;;19.05;85.75;100741.30;107369;1258;106376;-69
2023/06/18 04:28:50;;;;;;;;;;;;;;;19.04;85.57;100741.38;107143;1262;99208;-67
2023/06/18 04:31:18;;;;;;;;;;;;;;;19.02;85.49;100742.19;107360;1256;99151;-67
2023/06/18 04:33:47;;;;;;;;;;;;;;;19.02;85.31;100743.29;107233;1256;113138;-67
2023/06/18 04:36:15;;;;;;;;;;;;;;;19.05;85.29;100748.31;107226;1254;109817;-65
2023/06/18 04:38:45;;;;;;;;;;;;;;;19.05;85.20;100752.54;107356;1254;108272;-66
2023/06/18 04:41:14;;;;;;;;;;;;;;;19.04;85.18;100754.84;107378;1257;99189;-65
2023/06/18 04:43:43;;;;;;;;;;;;;;;19.05;85.09;100754.30;107212;1256;99265;-66
2023/06/18 04:46:12;;;;;;;;;;;;;;;19.14;85.27;100759.98;107325;1257;112989;-66
2023/06/18 04:48:40;;;;;;;;;;;;;;;19.23;84.86;100765.95;107349;1254;109805;-65
2023/06/18 04:51:09;;;;;;;;;;;;;;;19.36;84.89;100770.25;107327;1257;107781;-66
2023/06/18 04:53:38;;;;;;;;;;;;;;;19.53;84.90;100770.35;107260;1257;99182;-66
2023/06/18 04:56:08;;;;;;;;;;;;;;;19.61;83.30;100773.53;107201;1256;99273;-67
2023/06/18 04:58:39;;;;;;;;;;;;;;;19.55;82.93;100773.10;107285;1257;110959;-66
2023/06/18 05:01:08;;;;;;;;;;;;;;;19.48;82.68;100779.88;107431;1254;109691;-65
2023/06/18 05:03:37;;;;;;;;;;;;;;;19.40;82.95;100780.56;107264;1255;108338;-66
2023/06/18 05:06:06;;;;;;;;;;;;;;;19.37;83.12;100781.45;107411;1254;99362;-65
2023/06/18 05:08:35;;;;;;;;;;;;;;;19.36;83.15;100780.66;107519;1255;99292;-67
2023/06/18 05:11:03;;;;;;;;;;;;;;;19.35;83.42;100786.19;107421;1254;113337;-65
2023/06/18 05:13:33;;;;;;;;;;;;;;;19.37;83.48;100787.39;107262;1259;110264;-66
2023/06/18 05:16:01;;;;;;;;;;;;;;;19.44;83.55;100790.29;107280;1257;107720;-66
2023/06/18 05:18:30;;;;;;;;;;;;;;;19.42;83.35;100796.82;107345;1259;99211;-66
2023/06/18 05:20:58;;;;;;;;;;;;;;;19.39;83.16;100800.66;107425;1254;99150;-65
2023/06/18 05:23:27;;;;;;;;;;;;;;;19.38;83.38;100802.20;107475;1254;113291;-67
2023/06/18 05:25:55;;;;;;;;;;;;;;;19.42;83.23;100800.27;107245;1254;109735;-66
2023/06/18 05:28:23;;;;;;;;;;;;;;;19.52;83.21;100803.02;107236;1259;108149;-67
2023/06/18 05:30:52;;;;;;;;;;;;;;;19.63;82.82;100804.23;107386;1255;99320;-69
2023/06/18 05:33:20;;;;;;;;;;;;;;;19.68;82.59;100809.02;107431;1254;99217;-66
2023/06/18 05:35:54;;;;;;;;;;;;;;;19.68;82.14;100808.45;107328;1254;113123;-64
2023/06/18 05:38:23;;;;;;;;;;;;;;;19.69;82.21;100809.89;107450;1258;109452;-66
2023/06/18 05:40:51;;;;;;;;;;;;;;;19.73;82.34;100808.61;107253;1260;107456;-68
2023/06/18 05:43:19;;;;;;;;;;;;;;;19.74;82.15;100809.92;107280;1259;99198;-66
2023/06/18 05:45:50;;;;;;;;;;;;;;;19.74;82.18;100809.92;107479;1254;99587;-67
2023/06/18 05:48:18;;;;;;;;;;;;;;;19.80;82.01;100810.73;107482;1257;112802;-66
2023/06/18 05:50:58;;;;;;;;;;;;;;;19.85;82.23;100813.75;107370;1254;109269;-67
2023/06/18 05:53:27;;;;;;;;;;;;;;;19.95;82.05;100820.38;107467;1254;108302;-67
2023/06/18 05:55:56;;;;;;;;;;;;;;;20.10;82.17;100822.20;107292;1260;99267;-67
2023/06/18 05:58:24;;;;;;;;;;;;;;;20.24;81.51;100824.45;107325;1254;99230;-67
2023/06/18 06:00:52;;;;;;;;;;;;;;;20.34;81.19;100825.14;107401;1257;113614;-65
2023/06/18 06:03:21;;;;;;;;;;;;;;;20.43;80.44;100830.54;107477;1259;109197;-68
2023/06/18 06:05:49;;;;;;;;;;;;;;;20.44;79.98;100828.48;107213;1259;107985;-66
2023/06/18 06:08:17;;;;;;;;;;;;;;;20.48;79.78;100827.72;107415;1259;99056;-65
2023/06/18 06:10:51;;;;;;;;;;;;;;;20.57;79.43;100826.95;107237;1259;99250;-65
2023/06/18 06:13:20;;;;;;;;;;;;;;;20.64;79.25;100824.45;107472;1259;113766;-66
2023/06/18 06:15:54;;;;;;;;;;;;;;;20.79;79.13;100830.18;107364;1260;110252;-65
2023/06/18 06:18:22;;;;;;;;;;;;;;;20.92;79.27;100834.02;107420;1254;108394;-66
2023/06/18 06:20:50;;;;;;;;;;;;;;;21.13;79.13;100827.80;107369;1254;99172;-67
2023/06/18 06:23:19;;;;;;;;;;;;;;;21.36;78.54;100824.26;107435;1254;99518;-66
2023/06/18 06:25:47;;;;;;;;;;;;;;;21.57;78.17;100822.92;107445;1254;113228;-65
2023/06/18 06:28:16;;;;;;;;;;;;;;;21.75;77.09;100823.84;107455;1254;109707;-67
2023/06/18 06:30:45;;;;;;;;;;;;;;;21.85;74.95;100822.17;107420;1260;107907;-66
2023/06/18 06:33:14;;;;;;;;;;;;;;;21.87;74.68;100820.91;107435;1259;99313;-69
2023/06/18 06:35:43;;;;;;;;;;;;;;;22.00;74.85;100818.92;107414;1255;99275;-66
2023/06/18 06:38:13;;;;;;;;;;;;;;;22.08;73.52;100815.08;107381;1255;113780;-67
2023/06/18 06:40:41;;;;;;;;;;;;;;;22.21;74.15;100814.56;107384;1255;109672;-68
2023/06/18 06:43:10;;;;;;;;;;;;;;;22.42;74.18;100813.33;107428;1259;108538;-67
2023/06/18 06:45:48;;;;;;;;;;;;;;;22.64;72.81;100809.46;107409;1254;99170;-66
2023/06/18 06:48:21;;;;;;;;;;;;;;;22.77;71.24;100818.23;107435;1254;99038;-66
2023/06/18 06:51:12;;;;;;;;;;;;;;;22.79;70.52;100826.20;107406;1254;113346;-65
2023/06/18 06:53:52;;;;;;;;;;;;;;;22.71;69.09;100832.85;107453;1254;109798;-67
2023/06/18 06:56:20;;;;;;;;;;;;;;;22.63;69.28;100832.69;107366;1255;110635;-66
2023/06/18 06:58:50;;;;;;;;;;;;;;;22.74;69.07;100832.80;107377;1258;99301;-67
2023/06/18 07:01:21;;;;;;;;;;;;;;;22.83;69.39;100832.89;107372;1257;99024;-66
2023/06/18 07:03:51;;;;;;;;;;;;;;;22.87;68.70;100832.54;107384;1258;113174;-67
2023/06/18 07:06:19;;;;;;;;;;;;;;;22.86;68.47;100835.23;107366;1254;109656;-65
2023/06/18 07:08:47;;;;;;;;;;;;;;;22.93;68.86;100831.00;107363;1254;108476;-67
2023/06/18 07:11:15;;;;;;;;;;;;;;;23.08;68.93;100833.77;107292;1257;99194;-66
2023/06/18 07:13:43;;;;;;;;;;;;;;;23.20;68.32;100825.84;107389;1259;99268;-67
2023/06/18 07:16:12;;;;;;;;;;;;;;;23.16;68.04;100824.48;107377;1254;112915;-66
2023/06/18 07:18:40;;;;;;;;;;;;;;;23.22;68.32;100822.37;107383;1257;109586;-67
2023/06/18 07:21:08;;;;;;;;;;;;;;;23.37;67.05;100820.44;107331;1259;107546;-65
2023/06/18 07:23:37;;;;;;;;;;;;;;;23.44;66.83;100814.85;107366;1256;99252;-66
2023/06/18 07:26:05;;;;;;;;;;;;;;;23.50;67.74;100815.49;107347;1254;99169;-67
2023/06/18 07:28:33;;;;;;;;;;;;;;;23.52;67.50;100814.86;107355;1254;113417;-67
2023/06/18 07:31:01;;;;;;;;;;;;;;;23.50;67.12;100818.62;107376;1260;109358;-66
2023/06/18 07:33:29;;;;;;;;;;;;;;;23.36;66.52;100818.54;107351;1254;109156;-66
2023/06/18 07:35:57;;;;;;;;;;;;;;;23.22;66.85;100816.92;107306;1257;99161;-66
2023/06/18 07:38:25;;;;;;;;;;;;;;;23.18;67.24;100812.73;107316;1260;99185;-65
2023/06/18 07:40:54;;;;;;;;;;;;;;;23.09;67.11;100814.85;107317;1257;113195;-66
2023/06/18 07:43:22;;;;;;;;;;;;;;;22.98;67.84;100813.43;107197;1257;109378;-68
2023/06/18 07:45:50;;;;;;;;;;;;;;;22.99;67.76;100813.84;107301;1256;107128;-66
2023/06/18 07:48:19;;;;;;;;;;;;;;;22.98;67.58;100814.91;107267;1257;99266;-67
2023/06/18 07:50:47;;;;;;;;;;;;;;;22.99;68.14;100817.08;107385;1255;99194;-66
2023/06/18 07:53:15;;;;;;;;;;;;;;;22.95;68.02;100816.27;107341;1257;113144;-66
2023/06/18 07:55:43;;;;;;;;;;;;;;;23.00;68.24;100814.02;107344;1254;109520;-67
2023/06/18 07:58:11;;;;;;;;;;;;;;;23.01;67.75;100813.95;107314;1254;108310;-65
2023/06/18 08:00:39;;;;;;;;;;;;;;;23.07;67.96;100815.36;107341;1254;99301;-65
2023/06/18 08:03:07;;;;;;;;;;;;;;;23.07;67.43;100813.77;106845;1254;668860;-66
2023/06/18 08:05:36;;;;;;;;;;;;;;;23.12;67.62;100817.83;107360;1257;113044;-66
2023/06/18 08:08:04;;;;;;;;;;;;;;;23.13;67.07;100816.44;107348;1257;109303;-66
2023/06/18 08:10:32;;;;;;;;;;;;;;;23.19;67.23;100817.48;107380;1257;108906;-67
2023/06/18 08:13:00;;;;;;;;;;;;;;;23.27;67.59;100811.91;107362;1254;99178;-66
2023/06/18 08:15:28;;;;;;;;;;;;;;;23.49;67.21;100814.48;107432;1254;99047;-67
2023/06/18 08:17:58;;;;;;;;;;;;;;;23.64;67.22;100813.07;107420;1254;112642;-66
2023/06/18 08:20:26;;;;;;;;;;;;;;;23.74;65.85;100812.58;107403;1254;109801;-66
2023/06/18 08:22:54;;;;;;;;;;;;;;;23.89;66.08;100815.17;107386;1257;109080;-66
2023/06/18 08:25:22;;;;;;;;;;;;;;;24.06;65.34;100812.13;107388;1254;99399;-67
2023/06/18 08:27:50;;;;;;;;;;;;;;;24.16;64.25;100815.14;107381;1254;99064;-64
2023/06/18 08:30:18;;;;;;;;;;;;;;;24.34;63.93;100811.80;107393;1254;112894;-67
2023/06/18 08:32:47;;;;;;;;;;;;;;;24.54;63.92;100811.15;107397;1257;109993;-67
2023/06/18 08:35:19;;;;;;;;;;;;;;;24.79;64.11;100805.02;107380;1254;106987;-68
2023/06/18 08:37:50;;;;;;;;;;;;;;;24.87;61.23;100808.73;107390;1254;99063;-68
2023/06/18 08:40:26;;;;;;;;;;;;;;;24.88;61.02;100803.98;107425;1257;99173;-68
2023/06/18 08:42:54;;;;;;;;;;;;;;;24.96;61.17;100802.23;107434;1254;112931;-68
2023/06/18 08:45:34;;;;;;;;;;;;;;;25.06;61.72;100802.48;107415;1254;109159;-69
2023/06/18 08:48:05;;;;;;;;;;;;;;;25.22;62.32;100797.69;107368;1254;108851;-66
2023/06/18 08:51:03;;;;;;;;;;;;;;;25.47;61.40;100795.65;107347;1254;99191;-68
2023/06/18 08:53:39;;;;;;;;;;;;;;;25.66;61.45;100804.23;107381;1254;99207;-67
2023/06/18 08:56:08;;;;;;;;;;;;;;;25.80;60.52;100802.48;107290;1254;113553;-67
2023/06/18 08:58:52;;;;;;;;;;;;;;;25.95;59.74;100799.93;107414;1254;108061;-69
2023/06/18 09:01:20;;;;;;;;;;;;;;;26.11;59.01;100797.19;107273;1254;107090;-65
2023/06/18 09:03:49;;;;;;;;;;;;;;;26.20;58.72;100801.87;107408;1254;99807;-69
2023/06/18 09:06:18;;;;;;;;;;;;;;;26.25;58.44;100797.69;107449;1254;99196;-68
2023/06/18 09:08:47;;;;;;;;;;;;;;;26.41;58.85;100797.66;107470;1254;111850;-67
2023/06/18 09:11:15;;;;;;;;;;;;;;;26.55;57.09;100800.35;107309;1254;109451;-66
2023/06/18 09:13:44;;;;;;;;;;;;;;;26.48;55.76;100802.27;107411;1254;108598;-66
2023/06/18 09:16:12;;;;;;;;;;;;;;;26.47;56.14;100802.37;107396;1254;99265;-66
2023/06/18 09:18:40;;;;;;;;;;;;;;;26.60;56.77;100799.24;107397;1254;99058;-65
2023/06/18 09:21:10;;;;;;;;;;;;;;;26.76;55.94;100797.16;107406;1254;113529;-67
2023/06/18 09:23:40;;;;;;;;;;;;;;;26.87;56.15;100789.77;107459;1254;109239;-66
2023/06/18 09:26:12;;;;;;;;;;;;;;;27.09;55.84;100792.80;107427;1257;107981;-65
2023/06/18 09:28:40;;;;;;;;;;;;;;;27.19;54.30;100795.36;107411;1254;99168;-65
2023/06/18 09:31:08;;;;;;;;;;;;;;;27.18;53.76;100788.79;107377;1257;99163;-65
2023/06/18 09:33:36;;;;;;;;;;;;;;;27.28;53.66;100789.79;107378;1254;112976;-66
2023/06/18 09:36:06;;;;;;;;;;;;;;;27.47;53.56;100786.06;107468;1254;109878;-66
2023/06/18 09:38:36;;;;;;;;;;;;;;;27.62;53.14;100782.19;107372;1257;108451;-67
2023/06/18 09:41:16;;;;;;;;;;;;;;;27.84;53.01;100780.84;107392;1254;99510;-66
2023/06/18 09:43:48;;;;;;;;;;;;;;;28.11;51.88;100783.27;107430;1254;99192;-66
2023/06/18 09:46:18;;;;;;;;;;;;;;;28.46;52.38;100781.93;107407;1254;113077;-66
2023/06/18 09:48:47;;;;;;;;;;;;;;;28.73;49.69;100785.95;107450;1254;108753;-67
2023/06/18 09:51:24;;;;;;;;;;;;;;;28.95;49.35;100779.73;107382;1254;108365;-66
2023/06/18 09:53:57;;;;;;;;;;;;;;;29.25;50.04;100773.70;107405;1254;99178;-67
2023/06/18 09:56:25;;;;;;;;;;;;;;;29.72;49.77;100773.87;107364;1254;99303;-66
2023/06/18 09:58:54;;;;;;;;;;;;;;;30.06;46.97;100770.21;107387;1254;113343;-65
2023/06/18 10:01:21;;;;;;;;;;;;;;;30.21;46.74;100761.20;107379;1254;109764;-67
2023/06/18 10:03:50;;;;;;;;;;;;;;;30.44;46.36;100764.94;107427;1254;108430;-67
2023/06/18 10:06:19;;;;;;;;;;;;;;;30.60;46.00;100758.98;107386;1257;99176;-66
2023/06/18 10:08:55;;;;;;;;;;;;;;;30.77;45.48;100761.04;107382;1257;99160;-68
2023/06/18 10:11:24;;;;;;;;;;;;;;;31.01;45.19;100749.44;107379;1254;114088;-66
2023/06/18 10:14:05;;;;;;;;;;;;;;;31.27;44.01;100748.23;107406;1254;109835;-67
2023/06/18 10:16:34;;;;;;;;;;;;;;;31.41;44.46;100742.75;107486;1254;108161;-67
2023/06/18 10:19:06;;;;;;;;;;;;;;;31.72;43.84;100737.64;107402;1254;99169;-65
2023/06/18 10:21:37;;;;;;;;;;;;;;;32.06;43.23;100734.52;107377;1254;99131;-67
2023/06/18 10:24:11;;;;;;;;;;;;;;;32.58;42.93;100743.23;107390;1257;113287;-66
2023/06/18 10:26:40;;;;;;;;;;;;;;;33.08;39.94;100727.92;107393;1257;111674;-66
2023/06/18 10:29:12;;;;;;;;;;;;;;;33.41;39.31;100729.27;107428;1257;107868;-66
2023/06/18 10:31:41;;;;;;;;;;;;;;;33.73;39.40;100716.20;107386;1254;99061;-66
2023/06/18 10:34:10;;;;;;;;;;;;;;;34.07;38.89;100716.21;107419;1254;99273;-66
2023/06/18 10:36:39;;;;;;;;;;;;;;;34.55;36.48;100708.77;107394;1254;113256;-66
2023/06/18 10:39:07;;;;;;;;;;;;;;;34.88;37.61;100705.03;107452;1254;108443;-66
2023/06/18 10:41:51;;;;;;;;;;;;;;;35.40;37.32;100700.32;107441;1254;107339;-66
2023/06/18 10:44:31;;;;;;;;;;;;;;;35.89;35.52;100696.71;107427;1254;99672;-66
2023/06/18 10:47:22;;;;;;;;;;;;;;;36.24;35.27;100695.19;107388;1254;99164;-65
2023/06/18 10:50:00;;;;;;;;;;;;;;;36.67;34.19;100691.59;107403;1254;112880;-69
2023/06/18 10:52:33;;;;;;;;;;;;;;;37.06;33.93;100690.09;107362;1254;109568;-66
2023/06/18 10:55:12;;;;;;;;;;;;;;;37.31;31.89;100688.02;107365;1254;107850;-67
2023/06/18 10:57:42;;;;;;;;;;;;;;;37.30;32.35;100687.91;107399;1254;99294;-69
2023/06/18 11:00:29;;;;;;;;;;;;;;;37.42;31.72;100686.14;107433;1254;99172;-67
2023/06/18 11:03:02;;;;;;;;;;;;;;;37.16;31.54;100678.95;107378;1254;113913;-67
2023/06/18 11:05:34;;;;;;;;;;;;;;;37.37;32.67;100678.49;107425;1254;109384;-67
2023/06/18 11:08:04;;;;;;;;;;;;;;;37.93;32.08;100671.19;107382;1254;108448;-65
2023/06/18 11:10:37;;;;;;;;;;;;;;;38.38;31.69;100667.76;107333;1254;99192;-66
2023/06/18 11:13:06;;;;;;;;;;;;;;;38.65;29.56;100660.89;107322;1254;99513;-67
2023/06/18 11:15:35;;;;;;;;;;;;;;;38.74;29.49;100661.85;107361;1254;113403;-66
2023/06/18 11:18:03;;;;;;;;;;;;;;;38.80;28.61;100658.91;107407;1254;109127;-66
2023/06/18 11:20:35;;;;;;;;;;;;;;;38.74;28.54;100658.55;107380;1254;108164;-66
2023/06/18 11:23:03;;;;;;;;;;;;;;;38.61;28.84;100662.67;107390;1254;99288;-67
2023/06/18 11:25:34;;;;;;;;;;;;;;;38.70;29.47;100658.52;107426;1254;100659;-68
2023/06/18 11:28:04;;;;;;;;;;;;;;;38.78;29.66;100659.31;107368;1254;113730;-66
2023/06/18 11:30:33;;;;;;;;;;;;;;;39.00;29.01;100655.08;107436;1254;108686;-66
2023/06/18 11:33:01;;;;;;;;;;;;;;;39.36;28.42;100653.97;107378;1254;108753;-66
2023/06/18 11:35:30;;;;;;;;;;;;;;;39.77;28.07;100660.94;107370;1254;99103;-66
2023/06/18 11:37:59;;;;;;;;;;;;;;;39.71;26.48;100653.54;107390;1254;99808;-66
2023/06/18 11:40:27;;;;;;;;;;;;;;;38.75;27.26;100644.83;107350;1254;112563;-66
2023/06/18 11:42:56;;;;;;;;;;;;;;;38.79;27.74;100641.69;107367;1254;109303;-67
2023/06/18 11:45:24;;;;;;;;;;;;;;;39.15;26.56;100636.86;107348;1254;107283;-66
2023/06/18 11:47:53;;;;;;;;;;;;;;;39.55;26.73;100632.39;107312;1257;99179;-67
2023/06/18 11:50:25;;;;;;;;;;;;;;;40.08;26.70;100631.38;107371;1256;99064;-65
2023/06/18 11:52:54;;;;;;;;;;;;;;;40.58;25.77;100637.38;107382;1254;113493;-65
2023/06/18 11:55:22;;;;;;;;;;;;;;;40.35;25.21;100638.97;107366;1254;110104;-65
2023/06/18 11:57:50;;;;;;;;;;;;;;;39.80;24.03;100645.19;107332;1255;108244;-67
2023/06/18 12:00:19;;;;;;;;;;;;;;;39.01;25.44;100647.49;107357;1254;99168;-70
2023/06/18 12:02:46;;;;;;;;;;;;;;;38.26;26.07;100648.56;107401;1254;99194;-70
2023/06/18 12:05:15;;;;;;;;;;;;;;;38.23;27.37;100646.83;107413;1257;112408;-66
2023/06/18 12:07:45;;;;;;;;;;;;;;;38.85;26.39;100643.81;107385;1254;109223;-67
2023/06/18 12:10:13;;;;;;;;;;;;;;;39.56;26.59;100637.65;107441;1254;108202;-66
2023/06/18 12:13:00;;;;;;;;;;;;;;;40.11;24.39;100633.26;107369;1253;99259;-66
2023/06/18 12:15:29;;;;;;;;;;;;;;;40.31;24.59;100631.43;107401;1254;99291;-67
2023/06/18 12:18:19;;;;;;;;;;;;;;;40.79;23.48;100633.10;107377;1256;113200;-67
2023/06/18 12:20:47;;;;;;;;;;;;;;;40.89;22.81;100632.33;107407;1254;109743;-67
2023/06/18 12:23:16;;;;;;;;;;;;;;;39.91;23.36;100633.59;107377;1254;108778;-67
2023/06/18 12:25:44;;;;;;;;;;;;;;;38.79;24.67;100627.95;107362;1254;99191;-66
2023/06/18 12:28:13;;;;;;;;;;;;;;;38.84;25.35;100629.27;107370;1254;99197;-66
2023/06/18 12:30:42;;;;;;;;;;;;;;;39.58;24.50;100625.47;107385;1254;112818;-67
2023/06/18 12:33:11;;;;;;;;;;;;;;;39.49;24.87;100622.58;107404;1254;109670;-66
2023/06/18 12:35:46;;;;;;;;;;;;;;;39.02;25.24;100615.93;107362;1254;108050;-66
2023/06/18 12:38:14;;;;;;;;;;;;;;;38.46;25.53;100612.77;107364;1254;99185;-66
2023/06/18 12:40:47;;;;;;;;;;;;;;;37.64;26.23;100618.40;107430;1254;99272;-66